createdAt,value
2019-01-29T00:00:26.504Z,98.49
2019-01-29T00:01:26.464Z,98.49
2019-01-29T00:02:26.431Z,98.18
2019-01-29T00:03:26.438Z,98.49
2019-01-29T00:04:26.406Z,98.18
2019-01-29T00:05:26.329Z,98.38
2019-01-29T00:06:26.296Z,98.32
2019-01-29T00:07:26.305Z,98.53
2019-01-29T00:08:26.219Z,98.49
2019-01-29T00:09:26.228Z,98.28
2019-01-29T00:10:26.172Z,98.63
2019-01-29T00:11:26.108Z,98.43
2019-01-29T00:12:26.144Z,98.43
2019-01-29T00:13:26.035Z,98.74
2019-01-29T00:14:26.053Z,98.22
2019-01-29T00:15:25.964Z,98.43
2019-01-29T00:16:25.944Z,98.63
2019-01-29T00:17:25.899Z,98.63
2019-01-29T00:18:25.926Z,98.63
2019-01-29T00:19:25.867Z,98.85
2019-01-29T00:20:25.788Z,99.05
2019-01-29T00:21:25.750Z,98.95
2019-01-29T00:22:33.232Z,98.95
2019-01-29T00:23:25.677Z,99.16
2019-01-29T00:24:25.681Z,99.16
2019-01-29T00:25:25.604Z,98.85
2019-01-29T00:26:25.568Z,98.95
2019-01-29T00:27:25.576Z,98.69
2019-01-29T00:28:25.500Z,98.69
2019-01-29T00:29:25.463Z,99.26
2019-01-29T00:30:25.427Z,98.74
2019-01-29T00:31:25.390Z,99.16
2019-01-29T00:32:25.403Z,99.05
2019-01-29T00:33:25.317Z,99.05
2019-01-29T00:34:25.284Z,98.95
2019-01-29T00:35:25.248Z,98.69
2019-01-29T00:36:25.322Z,98.85
2019-01-29T00:37:25.172Z,98.90
2019-01-29T00:38:25.137Z,98.90
2019-01-29T00:39:25.132Z,98.69
2019-01-29T00:40:25.076Z,99.05
2019-01-29T00:41:25.068Z,98.90
2019-01-29T00:42:25.052Z,98.80
2019-01-29T00:43:24.960Z,98.90
2019-01-29T00:44:24.919Z,98.59
2019-01-29T00:45:24.904Z,98.63
2019-01-29T00:46:24.849Z,98.49
2019-01-29T00:47:24.883Z,98.49
2019-01-29T00:48:24.778Z,98.49
2019-01-29T00:49:24.741Z,98.59
2019-01-29T00:50:24.705Z,98.38
2019-01-29T00:51:24.667Z,98.53
2019-01-29T00:52:24.684Z,98.18
2019-01-29T00:53:24.640Z,98.18
2019-01-29T00:54:24.562Z,98.22
2019-01-29T00:55:24.527Z,98.53
2019-01-29T00:56:24.490Z,98.22
2019-01-29T00:57:24.461Z,98.01
2019-01-29T00:58:24.475Z,98.37
2019-01-29T00:59:24.379Z,98.43
2019-01-29T01:00:24.351Z,98.16
2019-01-29T01:01:24.323Z,98.47
2019-01-29T01:02:25.024Z,98.05
2019-01-29T01:03:24.297Z,98.37
2019-01-29T01:04:24.359Z,98.47
2019-01-29T01:05:24.208Z,98.47
2019-01-29T01:06:31.520Z,98.16
2019-01-29T01:07:24.136Z,98.47
2019-01-29T01:08:24.070Z,98.58
2019-01-29T01:09:24.031Z,98.26
2019-01-29T01:10:23.983Z,98.05
2019-01-29T01:11:24.001Z,98.58
2019-01-29T01:12:23.911Z,98.43
2019-01-29T01:13:23.874Z,98.63
2019-01-29T01:14:23.843Z,98.63
2019-01-29T01:15:23.812Z,98.68
2019-01-29T01:16:23.821Z,98.74
2019-01-29T01:17:23.727Z,98.74
2019-01-29T01:18:23.692Z,98.53
2019-01-29T01:19:23.673Z,98.22
2019-01-29T01:20:23.623Z,98.74
2019-01-29T01:21:23.645Z,98.53
2019-01-29T01:22:23.554Z,98.43
2019-01-29T01:23:23.514Z,98.11
2019-01-29T01:24:23.478Z,98.18
2019-01-29T01:25:23.442Z,98.32
2019-01-29T01:26:23.451Z,98.11
2019-01-29T01:27:23.374Z,97.97
2019-01-29T01:28:23.334Z,98.43
2019-01-29T01:29:23.301Z,98.32
2019-01-29T01:30:23.262Z,98.43
2019-01-29T01:31:23.267Z,98.32
2019-01-29T01:32:23.189Z,98.28
2019-01-29T01:33:23.196Z,98.18
2019-01-29T01:34:23.119Z,98.01
2019-01-29T01:35:23.083Z,97.97
2019-01-29T01:36:23.045Z,98.18
2019-01-29T01:37:23.008Z,98.07
2019-01-29T01:38:23.021Z,97.97
2019-01-29T01:39:22.937Z,98.07
2019-01-29T01:40:22.975Z,98.28
2019-01-29T01:41:22.910Z,97.97
2019-01-29T01:42:22.871Z,97.97
2019-01-29T01:43:22.792Z,97.97
2019-01-29T01:44:22.765Z,98.07
2019-01-29T01:45:22.724Z,97.65
2019-01-29T01:46:22.732Z,97.34
2019-01-29T01:47:22.703Z,97.65
2019-01-29T01:48:22.619Z,97.44
2019-01-29T01:49:22.579Z,96.92
2019-01-29T01:50:22.546Z,96.50
2019-01-29T01:51:22.562Z,97.13
2019-01-29T01:52:22.476Z,97.24
2019-01-29T01:53:22.434Z,96.71
2019-01-29T01:54:22.408Z,96.82
2019-01-29T01:55:22.362Z,96.19
2019-01-29T01:56:22.379Z,96.34
2019-01-29T01:57:22.341Z,95.36
2019-01-29T01:58:22.254Z,95.67
2019-01-29T01:59:22.220Z,95.25
2019-01-29T02:00:22.190Z,95.72
2019-01-29T02:01:22.146Z,95.50
2019-01-29T02:02:22.156Z,95.19
2019-01-29T02:03:22.079Z,95.09
2019-01-29T02:04:22.036Z,95.50
2019-01-29T02:05:22.013Z,95.40
2019-01-29T02:06:21.968Z,94.88
2019-01-29T02:07:21.969Z,95.09
2019-01-29T02:08:21.935Z,95.19
2019-01-29T02:09:21.919Z,95.19
2019-01-29T02:10:21.825Z,95.03
2019-01-29T02:11:21.784Z,95.34
2019-01-29T02:12:21.795Z,95.76
2019-01-29T02:13:21.763Z,95.13
2019-01-29T02:14:21.683Z,95.23
2019-01-29T02:15:21.651Z,96.07
2019-01-29T02:16:21.628Z,95.38
2019-01-29T02:17:21.569Z,95.90
2019-01-29T02:18:21.589Z,95.65
2019-01-29T02:19:21.494Z,95.80
2019-01-29T02:20:21.472Z,96.11
2019-01-29T02:21:21.429Z,95.74
2019-01-29T02:22:21.385Z,96.01
2019-01-29T02:23:21.388Z,96.01
2019-01-29T02:24:21.359Z,96.47
2019-01-29T02:25:21.316Z,96.95
2019-01-29T02:26:21.266Z,97.00
2019-01-29T02:27:21.202Z,96.68
2019-01-29T02:28:21.169Z,97.00
2019-01-29T02:29:21.177Z,96.78
2019-01-29T02:30:21.162Z,97.20
2019-01-29T02:31:21.062Z,97.10
2019-01-29T02:32:21.020Z,97.20
2019-01-29T02:33:20.994Z,96.78
2019-01-29T02:34:20.947Z,97.00
2019-01-29T02:35:20.975Z,97.25
2019-01-29T02:36:20.874Z,97.14
2019-01-29T02:37:20.887Z,97.14
2019-01-29T02:38:20.806Z,96.72
2019-01-29T02:39:20.773Z,97.35
2019-01-29T02:40:20.775Z,97.14
2019-01-29T02:41:20.704Z,97.14
2019-01-29T02:42:20.717Z,97.14
2019-01-29T02:43:20.631Z,97.41
2019-01-29T02:44:20.583Z,97.56
2019-01-29T02:45:20.548Z,97.56
2019-01-29T02:46:20.556Z,97.56
2019-01-29T02:47:20.528Z,97.56
2019-01-29T02:48:20.439Z,97.25
2019-01-29T02:49:20.404Z,97.04
2019-01-29T02:50:20.373Z,97.45
2019-01-29T02:51:20.326Z,96.94
2019-01-29T02:52:20.335Z,97.14
2019-01-29T02:53:20.299Z,97.35
2019-01-29T02:54:21.119Z,97.14
2019-01-29T02:55:20.265Z,97.25
2019-01-29T02:56:20.143Z,97.25
2019-01-29T02:57:20.109Z,96.94
2019-01-29T02:58:20.115Z,96.83
2019-01-29T02:59:20.041Z,97.67
2019-01-29T03:00:20.044Z,97.56
2019-01-29T03:01:19.964Z,96.88
2019-01-29T03:02:19.923Z,96.83
2019-01-29T03:03:19.945Z,96.20
2019-01-29T03:04:19.861Z,96.35
2019-01-29T03:05:19.812Z,97.25
2019-01-29T03:06:19.775Z,96.20
2019-01-29T03:07:19.743Z,96.31
2019-01-29T03:08:19.773Z,96.35
2019-01-29T03:09:19.665Z,97.25
2019-01-29T03:10:19.636Z,96.94
2019-01-29T03:11:19.595Z,96.20
2019-01-29T03:12:19.555Z,96.56
2019-01-29T03:13:19.561Z,96.98
2019-01-29T03:14:19.482Z,97.08
2019-01-29T03:15:19.494Z,96.77
2019-01-29T03:16:19.410Z,97.04
2019-01-29T03:17:19.377Z,97.08
2019-01-29T03:18:19.386Z,96.98
2019-01-29T03:19:19.298Z,96.98
2019-01-29T03:20:19.266Z,97.08
2019-01-29T03:21:19.264Z,97.19
2019-01-29T03:22:19.254Z,97.08
2019-01-29T03:23:27.316Z,96.77
2019-01-29T03:24:19.117Z,97.19
2019-01-29T03:25:19.082Z,96.98
2019-01-29T03:26:19.042Z,97.08
2019-01-29T03:27:19.050Z,96.88
2019-01-29T03:28:18.965Z,97.19
2019-01-29T03:29:18.976Z,96.98
2019-01-29T03:30:18.890Z,96.77
2019-01-29T03:31:18.873Z,96.25
2019-01-29T03:32:18.829Z,96.04
2019-01-29T03:33:18.861Z,95.51
2019-01-29T03:34:18.745Z,95.83
2019-01-29T03:35:18.704Z,95.83
2019-01-29T03:36:18.673Z,95.51
2019-01-29T03:37:18.639Z,95.41
2019-01-29T03:38:18.646Z,95.20
2019-01-29T03:39:18.565Z,95.09
2019-01-29T03:40:18.528Z,95.09
2019-01-29T03:41:18.532Z,95.41
2019-01-29T03:42:18.444Z,95.09
2019-01-29T03:43:18.411Z,94.99
2019-01-29T03:44:18.379Z,94.89
2019-01-29T03:45:18.343Z,94.46
2019-01-29T03:46:18.339Z,94.78
2019-01-29T03:47:18.263Z,94.26
2019-01-29T03:48:18.225Z,93.84
2019-01-29T03:49:18.247Z,94.36
2019-01-29T03:50:18.152Z,94.15
2019-01-29T03:51:18.114Z,94.36
2019-01-29T03:52:18.076Z,93.84
2019-01-29T03:53:18.045Z,94.15
2019-01-29T03:54:18.124Z,94.26
2019-01-29T03:55:17.974Z,93.95
2019-01-29T03:56:17.931Z,94.36
2019-01-29T03:57:17.893Z,94.26
2019-01-29T03:58:17.921Z,94.78
2019-01-29T03:59:17.831Z,94.26
2019-01-29T04:00:17.791Z,94.05
2019-01-29T04:01:17.745Z,94.05
2019-01-29T04:02:17.708Z,94.05
2019-01-29T04:03:17.720Z,94.15
2019-01-29T04:04:17.635Z,93.84
2019-01-29T04:05:17.607Z,93.21
2019-01-29T04:06:17.618Z,93.11
2019-01-29T04:07:17.530Z,92.79
2019-01-29T04:08:17.497Z,91.89
2019-01-29T04:09:17.453Z,92.00
2019-01-29T04:10:17.416Z,92.38
2019-01-29T04:11:17.433Z,92.31
2019-01-29T04:12:17.345Z,92.10
2019-01-29T04:13:17.310Z,91.89
2019-01-29T04:14:17.272Z,92.31
2019-01-29T04:15:17.234Z,92.00
2019-01-29T04:16:17.242Z,92.42
2019-01-29T04:17:17.152Z,92.10
2019-01-29T04:18:17.117Z,91.96
2019-01-29T04:19:17.090Z,91.16
2019-01-29T04:20:17.094Z,90.95
2019-01-29T04:21:17.008Z,90.95
2019-01-29T04:22:17.029Z,90.01
2019-01-29T04:23:17.015Z,90.95
2019-01-29T04:24:16.897Z,90.01
2019-01-29T04:25:16.866Z,90.01
2019-01-29T04:26:16.826Z,90.01
2019-01-29T04:27:16.827Z,90.22
2019-01-29T04:28:16.749Z,89.90
2019-01-29T04:29:16.714Z,89.59
2019-01-29T04:30:16.672Z,89.53
2019-01-29T04:31:16.641Z,89.07
2019-01-29T04:32:16.643Z,89.07
2019-01-29T04:33:16.563Z,89.48
2019-01-29T04:34:16.526Z,89.28
2019-01-29T04:35:16.489Z,89.48
2019-01-29T04:36:16.452Z,89.42
2019-01-29T04:37:16.455Z,89.63
2019-01-29T04:38:16.379Z,89.28
2019-01-29T04:39:16.342Z,89.17
2019-01-29T04:40:16.323Z,89.11
2019-01-29T04:41:16.264Z,89.00
2019-01-29T04:42:16.281Z,89.11
2019-01-29T04:43:16.241Z,89.32
2019-01-29T04:44:16.153Z,89.11
2019-01-29T04:45:16.165Z,88.90
2019-01-29T04:46:16.097Z,89.32
2019-01-29T04:47:16.046Z,89.42
2019-01-29T04:48:16.010Z,89.32
2019-01-29T04:49:15.973Z,89.67
2019-01-29T04:50:15.990Z,89.73
2019-01-29T04:51:15.952Z,89.57
2019-01-29T04:52:16.627Z,89.15
2019-01-29T04:53:15.863Z,89.42
2019-01-29T04:54:15.787Z,89.67
2019-01-29T04:55:15.792Z,89.57
2019-01-29T04:56:15.714Z,89.98
2019-01-29T04:57:15.680Z,89.78
2019-01-29T04:58:15.677Z,89.98
2019-01-29T04:59:15.596Z,89.88
2019-01-29T05:00:15.568Z,89.82
2019-01-29T05:01:15.525Z,90.03
2019-01-29T05:02:15.532Z,90.03
2019-01-29T05:03:15.495Z,90.28
2019-01-29T05:04:15.420Z,90.45
2019-01-29T05:05:15.395Z,90.91
2019-01-29T05:06:15.382Z,91.01
2019-01-29T05:07:15.313Z,90.91
2019-01-29T05:08:15.279Z,91.22
2019-01-29T05:09:15.233Z,91.37
2019-01-29T05:10:15.191Z,91.33
2019-01-29T05:11:15.204Z,91.37
2019-01-29T05:12:15.114Z,91.27
2019-01-29T05:13:15.126Z,91.27
2019-01-29T05:14:15.037Z,91.58
2019-01-29T05:15:15.006Z,92.42
2019-01-29T05:16:15.107Z,92.00
2019-01-29T05:17:15.056Z,92.21
2019-01-29T05:18:14.939Z,92.10
2019-01-29T05:19:15.534Z,92.00
2019-01-29T05:20:14.870Z,92.25
2019-01-29T05:21:14.781Z,92.35
2019-01-29T05:22:15.706Z,92.88
2019-01-29T05:23:17.093Z,92.77
2019-01-29T05:24:17.185Z,92.88
2019-01-29T05:25:14.790Z,92.88
2019-01-29T05:26:15.548Z,92.77
2019-01-29T05:27:14.665Z,92.99
2019-01-29T05:28:14.509Z,92.57
2019-01-29T05:29:14.534Z,92.67
2019-01-29T05:30:14.432Z,93.19
2019-01-29T05:31:14.395Z,92.99
2019-01-29T05:32:14.367Z,93.34
2019-01-29T05:33:14.320Z,93.44
2019-01-29T05:34:14.342Z,93.19
2019-01-29T05:35:14.251Z,93.82
2019-01-29T05:36:14.207Z,93.24
2019-01-29T05:37:14.213Z,92.92
2019-01-29T05:38:14.131Z,93.30
2019-01-29T05:39:14.137Z,93.09
2019-01-29T05:40:14.118Z,93.09
2019-01-29T05:41:14.020Z,93.13
2019-01-29T05:42:13.980Z,92.57
2019-01-29T05:43:13.939Z,92.67
2019-01-29T05:44:13.912Z,93.30
2019-01-29T05:45:13.913Z,92.88
2019-01-29T05:46:13.831Z,92.67
2019-01-29T05:47:13.791Z,92.82
2019-01-29T05:48:13.754Z,92.57
2019-01-29T05:49:13.774Z,92.61
2019-01-29T05:50:13.723Z,93.34
2019-01-29T05:51:13.648Z,93.30
2019-01-29T05:52:13.607Z,92.67
2019-01-29T05:53:13.561Z,93.13
2019-01-29T05:54:16.472Z,93.02
2019-01-29T05:55:13.489Z,93.34
2019-01-29T05:56:14.135Z,93.66
2019-01-29T05:57:13.413Z,93.66
2019-01-29T05:58:13.429Z,93.97
2019-01-29T05:59:13.335Z,93.97
2019-01-29T06:00:13.299Z,93.97
2019-01-29T06:01:13.258Z,94.08
2019-01-29T06:02:13.219Z,94.04
2019-01-29T06:03:13.250Z,94.04
2019-01-29T06:04:13.148Z,94.45
2019-01-29T06:05:13.110Z,94.56
2019-01-29T06:06:13.132Z,94.20
2019-01-29T06:07:13.032Z,94.62
2019-01-29T06:08:12.993Z,94.31
2019-01-29T06:09:12.953Z,93.68
2019-01-29T06:10:13.009Z,94.51
2019-01-29T06:11:12.926Z,94.58
2019-01-29T06:12:12.879Z,95.10
2019-01-29T06:13:12.815Z,94.26
2019-01-29T06:14:12.765Z,94.37
2019-01-29T06:15:12.772Z,94.22
2019-01-29T06:16:12.696Z,93.91
2019-01-29T06:17:12.702Z,93.74
2019-01-29T06:18:12.617Z,93.91
2019-01-29T06:19:12.576Z,93.80
2019-01-29T06:20:12.547Z,93.91
2019-01-29T06:21:12.555Z,93.76
2019-01-29T06:22:12.463Z,93.97
2019-01-29T06:23:12.435Z,93.76
2019-01-29T06:24:12.439Z,93.76
2019-01-29T06:25:12.354Z,93.97
2019-01-29T06:26:12.376Z,93.76
2019-01-29T06:27:12.277Z,93.87
2019-01-29T06:28:12.249Z,93.70
2019-01-29T06:29:12.203Z,93.65
2019-01-29T06:30:12.175Z,93.65
2019-01-29T06:31:12.189Z,93.44
2019-01-29T06:32:12.170Z,93.76
2019-01-29T06:33:12.057Z,94.03
2019-01-29T06:34:12.037Z,93.65
2019-01-29T06:35:11.991Z,93.61
2019-01-29T06:36:12.538Z,92.98
2019-01-29T06:37:11.903Z,93.19
2019-01-29T06:38:11.890Z,93.40
2019-01-29T06:39:11.897Z,93.19
2019-01-29T06:40:11.799Z,93.40
2019-01-29T06:41:11.759Z,93.15
2019-01-29T06:42:11.725Z,93.36
2019-01-29T06:43:11.734Z,93.40
2019-01-29T06:44:11.694Z,93.15
2019-01-29T06:45:11.612Z,93.04
2019-01-29T06:46:11.580Z,92.73
2019-01-29T06:47:11.536Z,92.42
2019-01-29T06:48:11.561Z,92.31
2019-01-29T06:49:11.471Z,92.52
2019-01-29T06:50:11.428Z,92.42
2019-01-29T06:51:11.389Z,92.52
2019-01-29T06:52:11.366Z,92.52
2019-01-29T06:53:11.359Z,92.42
2019-01-29T06:54:11.287Z,92.10
2019-01-29T06:55:11.247Z,92.21
2019-01-29T06:56:11.211Z,92.31
2019-01-29T06:57:11.169Z,92.94
2019-01-29T06:58:11.175Z,92.83
2019-01-29T06:59:11.155Z,92.83
2019-01-29T07:00:11.063Z,92.73
2019-01-29T07:01:11.038Z,92.83
2019-01-29T07:02:10.986Z,92.83
2019-01-29T07:03:10.951Z,92.31
2019-01-29T07:04:10.964Z,92.73
2019-01-29T07:05:10.879Z,92.48
2019-01-29T07:06:11.635Z,92.06
2019-01-29T07:07:10.830Z,92.79
2019-01-29T07:08:10.774Z,93.01
2019-01-29T07:09:10.772Z,92.90
2019-01-29T07:10:10.694Z,92.58
2019-01-29T07:11:10.656Z,92.27
2019-01-29T07:12:10.661Z,92.27
2019-01-29T07:13:10.634Z,92.38
2019-01-29T07:14:10.549Z,92.27
2019-01-29T07:15:10.513Z,92.48
2019-01-29T07:16:12.526Z,92.58
2019-01-29T07:17:10.442Z,92.58
2019-01-29T07:18:10.469Z,91.75
2019-01-29T07:19:10.364Z,91.96
2019-01-29T07:20:10.342Z,91.96
2019-01-29T07:21:10.296Z,91.85
2019-01-29T07:22:10.261Z,91.91
2019-01-29T07:23:10.260Z,91.91
2019-01-29T07:24:10.230Z,91.91
2019-01-29T07:25:10.145Z,91.81
2019-01-29T07:26:10.111Z,91.96
2019-01-29T07:27:10.116Z,92.13
2019-01-29T07:28:10.051Z,91.91
2019-01-29T07:29:10.069Z,92.44
2019-01-29T07:30:09.964Z,92.02
2019-01-29T07:31:09.942Z,92.44
2019-01-29T07:32:09.898Z,91.91
2019-01-29T07:33:09.879Z,91.98
2019-01-29T07:34:09.881Z,91.77
2019-01-29T07:35:09.785Z,91.35
2019-01-29T07:36:09.746Z,91.14
2019-01-29T07:37:09.715Z,90.83
2019-01-29T07:38:09.679Z,90.83
2019-01-29T07:39:09.694Z,91.03
2019-01-29T07:40:09.633Z,90.93
2019-01-29T07:41:10.541Z,90.83
2019-01-29T07:42:09.581Z,90.93
2019-01-29T07:43:09.494Z,91.35
2019-01-29T07:44:09.460Z,90.83
2019-01-29T07:45:09.421Z,90.72
2019-01-29T07:46:09.390Z,91.25
2019-01-29T07:47:09.392Z,91.35
2019-01-29T07:48:09.320Z,90.72
2019-01-29T07:49:09.289Z,91.25
2019-01-29T07:50:09.258Z,91.25
2019-01-29T07:51:09.207Z,90.62
2019-01-29T07:52:09.219Z,90.62
2019-01-29T07:53:09.146Z,90.93
2019-01-29T07:54:09.153Z,91.00
2019-01-29T07:55:09.064Z,91.10
2019-01-29T07:56:09.030Z,91.10
2019-01-29T07:57:09.062Z,90.78
2019-01-29T07:58:08.952Z,90.58
2019-01-29T07:59:08.966Z,90.68
2019-01-29T08:00:08.886Z,90.47
2019-01-29T08:01:08.850Z,90.16
2019-01-29T08:02:08.816Z,89.81
2019-01-29T08:03:08.779Z,89.49
2019-01-29T08:04:08.785Z,89.18
2019-01-29T08:05:08.750Z,89.24
2019-01-29T08:06:08.670Z,88.82
2019-01-29T08:07:08.635Z,88.93
2019-01-29T08:08:08.660Z,88.72
2019-01-29T08:09:08.598Z,89.03
2019-01-29T08:10:08.527Z,89.03
2019-01-29T08:11:08.491Z,88.82
2019-01-29T08:12:08.518Z,89.24
2019-01-29T08:13:08.417Z,89.24
2019-01-29T08:14:08.388Z,88.93
2019-01-29T08:15:08.351Z,89.03
2019-01-29T08:16:08.317Z,89.56
2019-01-29T08:17:08.323Z,89.03
2019-01-29T08:18:08.253Z,89.24
2019-01-29T08:19:08.218Z,89.24
2019-01-29T08:20:08.225Z,88.57
2019-01-29T08:21:08.138Z,88.57
2019-01-29T08:22:08.103Z,88.57
2019-01-29T08:23:08.110Z,88.47
2019-01-29T08:24:08.047Z,87.70
2019-01-29T08:25:07.996Z,87.81
2019-01-29T08:26:07.959Z,87.49
2019-01-29T08:27:07.975Z,86.76
2019-01-29T08:28:07.890Z,87.07
2019-01-29T08:29:07.857Z,87.91
2019-01-29T08:30:07.867Z,87.63
2019-01-29T08:31:07.795Z,87.81
2019-01-29T08:32:07.793Z,86.87
2019-01-29T08:33:07.713Z,87.45
2019-01-29T08:34:07.682Z,87.39
2019-01-29T08:35:07.688Z,86.61
2019-01-29T08:36:07.613Z,87.04
2019-01-29T08:37:07.631Z,86.93
2019-01-29T08:38:07.612Z,86.93
2019-01-29T08:39:07.508Z,86.20
2019-01-29T08:40:07.469Z,86.35
2019-01-29T08:41:07.445Z,86.76
2019-01-29T08:42:07.458Z,87.28
2019-01-29T08:43:07.366Z,87.07
2019-01-29T08:44:07.342Z,86.87
2019-01-29T08:45:07.300Z,87.81
2019-01-29T08:46:07.263Z,87.81
2019-01-29T08:47:07.273Z,88.01
2019-01-29T08:48:07.201Z,87.91
2019-01-29T08:49:07.160Z,87.35
2019-01-29T08:50:07.124Z,86.72
2019-01-29T08:51:07.097Z,86.61
2019-01-29T08:52:07.102Z,86.89
2019-01-29T08:53:07.020Z,86.10
2019-01-29T08:54:07.031Z,86.72
2019-01-29T08:55:10.785Z,87.24
2019-01-29T08:56:06.914Z,86.83
2019-01-29T08:57:08.926Z,86.37
2019-01-29T08:58:06.850Z,86.27
2019-01-29T08:59:06.813Z,86.06
2019-01-29T09:00:06.782Z,86.16
2019-01-29T09:01:08.717Z,85.96
2019-01-29T09:02:08.151Z,85.74
2019-01-29T09:03:06.722Z,86.06
2019-01-29T09:04:06.651Z,86.47
2019-01-29T09:05:06.609Z,86.06
2019-01-29T09:06:06.577Z,86.37
2019-01-29T09:07:06.537Z,86.06
2019-01-29T09:08:06.571Z,86.06
2019-01-29T09:09:06.505Z,85.96
2019-01-29T09:10:06.434Z,85.96
2019-01-29T09:11:06.398Z,86.27
2019-01-29T09:12:06.367Z,86.02
2019-01-29T09:13:06.326Z,86.16
2019-01-29T09:14:06.342Z,86.06
2019-01-29T09:15:06.256Z,86.27
2019-01-29T09:16:06.272Z,86.02
2019-01-29T09:17:06.195Z,86.27
2019-01-29T09:18:06.162Z,86.22
2019-01-29T09:19:06.126Z,85.96
2019-01-29T09:20:06.088Z,86.06
2019-01-29T09:21:06.102Z,86.83
2019-01-29T09:22:06.035Z,87.45
2019-01-29T09:23:05.986Z,87.76
2019-01-29T09:24:05.951Z,87.66
2019-01-29T09:25:05.943Z,87.66
2019-01-29T09:26:05.929Z,88.29
2019-01-29T09:27:05.854Z,88.18
2019-01-29T09:28:05.858Z,88.08
2019-01-29T09:29:05.780Z,88.49
2019-01-29T09:30:05.756Z,88.29
2019-01-29T09:31:05.713Z,88.39
2019-01-29T09:32:05.727Z,88.18
2019-01-29T09:33:05.650Z,87.87
2019-01-29T09:34:05.608Z,88.29
2019-01-29T09:35:05.636Z,87.97
2019-01-29T09:36:05.540Z,88.18
2019-01-29T09:37:05.527Z,87.76
2019-01-29T09:38:05.476Z,88.29
2019-01-29T09:39:05.436Z,88.29
2019-01-29T09:40:05.442Z,88.70
2019-01-29T09:41:05.449Z,88.24
2019-01-29T09:42:05.334Z,87.83
2019-01-29T09:43:05.295Z,87.73
2019-01-29T09:44:05.262Z,87.83
2019-01-29T09:45:05.224Z,88.14
2019-01-29T09:46:05.227Z,87.20
2019-01-29T09:47:05.223Z,87.73
2019-01-29T09:48:05.170Z,87.83
2019-01-29T09:49:05.089Z,87.30
2019-01-29T09:50:05.052Z,87.83
2019-01-29T09:51:05.017Z,87.83
2019-01-29T09:52:05.043Z,87.52
2019-01-29T09:53:04.952Z,86.96
2019-01-29T09:54:04.914Z,86.54
2019-01-29T09:55:04.945Z,86.19
2019-01-29T09:56:04.910Z,85.88
2019-01-29T09:57:04.818Z,85.67
2019-01-29T09:58:04.776Z,85.88
2019-01-29T09:59:04.741Z,85.31
2019-01-29T10:00:04.715Z,85.35
2019-01-29T10:01:04.713Z,85.56
2019-01-29T10:02:04.641Z,86.08
2019-01-29T10:03:04.725Z,85.88
2019-01-29T10:04:04.571Z,85.98
2019-01-29T10:05:04.536Z,86.19
2019-01-29T10:06:04.504Z,85.98
2019-01-29T10:07:04.480Z,86.08
2019-01-29T10:08:04.490Z,85.98
2019-01-29T10:09:04.402Z,86.19
2019-01-29T10:10:04.366Z,85.88
2019-01-29T10:11:04.333Z,85.52
2019-01-29T10:12:04.346Z,84.90
2019-01-29T10:13:04.273Z,84.75
2019-01-29T10:14:04.238Z,84.55
2019-01-29T10:15:04.200Z,84.09
2019-01-29T10:16:04.162Z,83.72
2019-01-29T10:17:04.170Z,83.92
2019-01-29T10:18:04.098Z,83.89
2019-01-29T10:19:04.065Z,83.47
2019-01-29T10:20:04.038Z,83.72
2019-01-29T10:21:03.993Z,83.68
2019-01-29T10:22:03.964Z,84.23
2019-01-29T10:23:03.976Z,82.95
2019-01-29T10:24:03.897Z,82.32
2019-01-29T10:25:03.864Z,82.74
2019-01-29T10:26:03.826Z,82.32
2019-01-29T10:27:03.837Z,83.05
2019-01-29T10:28:03.758Z,82.46
2019-01-29T10:29:03.728Z,82.95
2019-01-29T10:30:03.689Z,83.20
2019-01-29T10:31:03.658Z,82.84
2019-01-29T10:32:03.687Z,82.84
2019-01-29T10:33:03.585Z,83.09
2019-01-29T10:34:03.561Z,82.89
2019-01-29T10:35:03.524Z,83.26
2019-01-29T10:36:03.485Z,84.09
2019-01-29T10:37:04.069Z,82.64
2019-01-29T10:38:03.429Z,83.26
2019-01-29T10:39:03.395Z,84.05
2019-01-29T10:40:03.402Z,82.53
2019-01-29T10:41:03.334Z,82.32
2019-01-29T10:42:03.291Z,82.95
2019-01-29T10:43:03.269Z,83.92
2019-01-29T10:44:03.224Z,84.03
2019-01-29T10:45:03.236Z,83.96
2019-01-29T10:46:03.206Z,84.69
2019-01-29T10:47:03.119Z,85.56
2019-01-29T10:48:03.088Z,86.04
2019-01-29T10:49:03.102Z,85.63
2019-01-29T10:50:03.030Z,85.63
2019-01-29T10:51:02.988Z,85.69
2019-01-29T10:52:02.985Z,84.65
2019-01-29T10:53:02.924Z,84.75
2019-01-29T10:54:02.930Z,84.03
2019-01-29T10:55:02.854Z,84.44
2019-01-29T10:56:02.860Z,84.44
2019-01-29T10:57:02.789Z,83.72
2019-01-29T10:58:02.752Z,84.13
2019-01-29T10:59:02.731Z,84.23
2019-01-29T11:00:02.745Z,83.72
2019-01-29T11:01:02.648Z,84.34
2019-01-29T11:02:02.643Z,83.68
2019-01-29T11:03:02.603Z,83.78
2019-01-29T11:04:02.552Z,83.01
2019-01-29T11:05:02.564Z,82.95
2019-01-29T11:06:02.524Z,82.74
2019-01-29T11:07:02.447Z,82.70
2019-01-29T11:08:02.421Z,83.01
2019-01-29T11:09:02.403Z,82.50
2019-01-29T11:10:02.347Z,82.46
2019-01-29T11:11:02.465Z,83.01
2019-01-29T11:12:02.313Z,82.60
2019-01-29T11:13:02.273Z,83.12
2019-01-29T11:14:02.241Z,82.74
2019-01-29T11:15:02.184Z,82.53
2019-01-29T11:16:02.202Z,82.91
2019-01-29T11:17:02.117Z,84.09
2019-01-29T11:18:02.118Z,83.58
2019-01-29T11:19:03.464Z,83.05
2019-01-29T11:20:02.019Z,82.95
2019-01-29T11:21:01.983Z,83.37
2019-01-29T11:22:01.997Z,84.09
2019-01-29T11:23:01.919Z,83.89
2019-01-29T11:24:01.924Z,83.37
2019-01-29T11:25:01.846Z,83.26
2019-01-29T11:26:01.810Z,83.26
2019-01-29T11:27:01.829Z,83.68
2019-01-29T11:28:01.752Z,82.70
2019-01-29T11:29:01.764Z,83.01
2019-01-29T11:30:01.677Z,83.22
2019-01-29T11:31:01.647Z,82.81
2019-01-29T11:32:01.610Z,83.22
2019-01-29T11:33:01.577Z,81.98
2019-01-29T11:34:01.604Z,82.50
2019-01-29T11:35:01.514Z,82.18
2019-01-29T11:36:01.478Z,82.39
2019-01-29T11:37:01.452Z,82.18
2019-01-29T11:38:01.408Z,81.39
2019-01-29T11:39:01.419Z,82.12
2019-01-29T11:40:01.343Z,82.43
2019-01-29T11:41:01.307Z,82.43
2019-01-29T11:42:01.280Z,82.64
2019-01-29T11:43:01.287Z,82.26
2019-01-29T11:44:01.210Z,82.95
2019-01-29T11:45:01.177Z,82.43
2019-01-29T11:46:01.214Z,82.32
2019-01-29T11:47:01.109Z,82.84
2019-01-29T11:48:01.078Z,81.98
2019-01-29T11:49:02.727Z,81.98
2019-01-29T11:50:01.010Z,81.98
2019-01-29T11:51:00.973Z,81.04
2019-01-29T11:52:00.987Z,81.04
2019-01-29T11:53:00.908Z,80.28
2019-01-29T11:54:00.871Z,80.07
2019-01-29T11:55:00.851Z,79.34
2019-01-29T11:56:04.648Z,78.92
2019-01-29T11:57:00.786Z,78.72
2019-01-29T11:58:00.737Z,79.20
2019-01-29T11:59:00.708Z,78.75
2019-01-29T12:00:00.670Z,77.51
2019-01-29T12:01:00.699Z,77.72
2019-01-29T12:02:00.613Z,77.89
2019-01-29T12:03:00.580Z,77.82
2019-01-29T12:04:00.551Z,77.30
2019-01-29T12:05:00.516Z,77.23
2019-01-29T12:06:00.522Z,77.58
2019-01-29T12:07:00.441Z,79.06
2019-01-29T12:08:00.409Z,79.69
2019-01-29T12:09:00.472Z,79.90
2019-01-29T12:10:00.372Z,80.00
2019-01-29T12:11:00.347Z,79.90
2019-01-29T12:12:00.337Z,78.72
2019-01-29T12:13:02.306Z,78.34
2019-01-29T12:14:00.215Z,78.20
2019-01-29T12:15:00.182Z,77.99
2019-01-29T12:16:00.146Z,77.89
2019-01-29T12:17:00.167Z,77.78
2019-01-29T12:18:00.080Z,77.23
2019-01-29T12:19:00.063Z,77.33
2019-01-29T12:20:00.014Z,76.71
2019-01-29T12:20:59.978Z,75.36
2019-01-29T12:21:59.985Z,76.40
2019-01-29T12:22:59.953Z,77.12
2019-01-29T12:23:59.923Z,77.09
2019-01-29T12:24:59.842Z,74.81
2019-01-29T12:25:59.819Z,74.29
2019-01-29T12:26:59.776Z,74.01
2019-01-29T12:27:59.797Z,75.60
2019-01-29T12:28:59.711Z,76.23
2019-01-29T12:29:59.676Z,77.47
2019-01-29T12:30:59.717Z,76.95
2019-01-29T12:31:59.610Z,76.78
2019-01-29T12:32:59.582Z,77.40
2019-01-29T12:33:59.543Z,77.30
2019-01-29T12:34:59.511Z,77.61
2019-01-29T12:35:59.518Z,77.82
2019-01-29T12:36:59.495Z,78.13
2019-01-29T12:37:59.412Z,78.06
2019-01-29T12:38:59.375Z,78.13
2019-01-29T12:39:59.345Z,78.23
2019-01-29T12:40:59.320Z,77.72
2019-01-29T12:41:59.327Z,77.92
2019-01-29T12:42:59.295Z,78.30
2019-01-29T12:43:59.206Z,78.75
2019-01-29T12:44:59.187Z,77.89
2019-01-29T12:45:59.184Z,78.44
2019-01-29T12:46:59.111Z,78.86
2019-01-29T12:47:59.122Z,79.27
2019-01-29T12:48:59.038Z,79.69
2019-01-29T12:49:59.009Z,79.06
2019-01-29T12:50:58.977Z,80.00
2019-01-29T12:51:58.986Z,79.38